Latest Weather Observations for Maningrida Airport

IDD60801

Issued at 2:01 am CST Friday 3 July 2015 (issued every 30 minutes, with the page automatically refreshed every 10 minutes)

About weather observations | Map of weather stations | Latest weather observations for NT | Other Formats
Station Details ID: 014405 Name: MANINGRIDA AIRPORT Lat: -12.06 Lon: 134.23 Height: 28.1 m
Data from the previous 72 hours. | See also: Recent months at Maningrida Airport
Date/Time
CST
Temp
°C
App
Temp
°C
Dew
Point
Rel
Hum
%
Delta-T
°C
Wind Press
QNH
hPa
Press
MSL
hPa
Rain
since 9 am
mm
Dir
 
Spd
km/h
Gust
km/h
Spd
kts
Gust
kts
03/02:00am 22.4 23.0 19.4 83 1.9 ESE 15 20 8 11 1015.4 1015.2 0.0
03/01:30am 22.6 23.2 19.4 82 2.0 ESE 15 20 8 11 1015.8 1015.6 0.0
03/01:00am 22.8 23.3 19.2 80 2.3 SE 15 19 8 10 1015.9 1015.7 0.0
03/12:30am 23.4 23.0 18.9 76 2.9 ESE 19 28 10 15 1016.1 1015.9 0.0
03/12:00am 23.5 23.3 18.4 73 3.2 ESE 17 22 9 12 1016.1 1015.9 0.0
 
Date/Time
CST
Temp
°C
App
Temp
°C
Dew
Point
Rel
Hum
%
Delta-T
°C
Wind Press
QNH
hPa
Press
MSL
hPa
Rain
since 9 am
mm
Dir
 
Spd
km/h
Gust
km/h
Spd
kts
Gust
kts
02/11:30pm 24.0 23.2 18.0 69 3.8 ESE 19 26 10 14 1016.2 1016.0 0.0
02/11:00pm 24.5 23.3 17.5 65 4.4 ESE 20 26 11 14 1016.3 1016.1 0.0
02/10:30pm 24.9 23.5 16.9 61 4.9 SE 20 28 11 15 1016.2 1016.0 0.0
02/10:00pm 25.2 23.8 16.6 59 5.3 ESE 19 24 10 13 1016.3 1016.1 0.0
02/09:30pm 25.3 24.3 16.7 59 5.3 ESE 17 20 9 11 1016.1 1015.9 0.0
02/09:00pm 25.9 24.5 16.5 56 5.8 ESE 19 24 10 13 1015.8 1015.6 0.0
02/08:30pm 26.2 24.6 16.4 54 6.0 SE 20 30 11 16 1015.5 1015.3 0.0
02/08:00pm 26.5 24.6 16.7 55 6.1 SE 22 30 12 16 1015.1 1014.9 0.0
02/07:30pm 26.7 26.2 16.9 55 6.1 ESE 15 22 8 12 1014.8 1014.6 0.0
02/07:00pm 26.9 26.1 17.1 55 6.1 ESE 17 22 9 12 1014.5 1014.3 0.0
02/06:30pm 27.0 27.3 16.9 54 6.3 ESE 11 17 6 9 1014.1 1013.9 0.0
02/06:00pm 27.6 27.0 16.6 51 6.8 ESE 15 20 8 11 1013.8 1013.6 0.0
02/05:30pm 28.0 28.0 17.2 52 6.8 ESE 13 20 7 11 1013.7 1013.5 0.0
02/05:00pm 28.4 27.9 17.0 50 7.2 ESE 15 20 8 11 1013.6 1013.4 0.0
02/04:30pm 28.9 28.7 17.7 50 7.1 ESE 15 20 8 11 1013.5 1013.3 0.0
02/04:00pm 29.0 27.6 16.9 48 7.6 ESE 20 33 11 18 1013.3 1013.1 0.0
02/03:30pm 30.0 28.3 17.1 46 8.1 SE 22 32 12 17 1013.4 1013.2 0.0
02/03:00pm 29.8 28.4 16.9 45 8.1 ESE 20 32 11 17 1013.7 1013.5 0.0
02/02:30pm 29.7 26.7 15.8 43 8.6 SE 26 37 14 20 1014.0 1013.8 0.0
02/02:00pm 29.5 27.6 16.7 46 8.0 SE 22 35 12 19 1014.5 1014.3 0.0
02/01:30pm 29.4 26.2 16.2 44 8.2 SE 28 39 15 21 1014.9 1014.7 0.0
02/01:00pm 29.4 27.3 17.2 47 7.7 ESE 24 39 13 21 1015.5 1015.3 0.0
02/12:30pm 29.4 26.8 16.9 47 7.8 SE 26 35 14 19 1015.8 1015.6 0.0
02/12:00pm 28.4 25.4 16.7 49 7.3 SE 28 39 15 21 1016.3 1016.1 0.0
02/11:30am 28.0 25.7 17.5 52 6.6 ESE 26 44 14 24 1016.8 1016.6 0.0
02/11:00am 27.6 25.7 16.6 51 6.8 ESE 22 35 12 19 1017.2 1017.0 0.0
02/10:30am 27.1 25.2 16.7 53 6.5 ESE 22 32 12 17 1017.3 1017.1 0.0
02/10:00am 26.4 23.1 16.0 52 6.4 SE 28 37 15 20 1017.4 1017.2 0.0
02/09:30am 25.5 23.2 16.6 58 5.5 SE 24 33 13 18 1017.4 1017.2 0.0
02/09:00am 24.7 22.9 16.9 62 4.8 SE 22 32 12 17 1017.4 1017.2 5.2
02/08:30am 23.5 22.5 17.9 71 3.5 SE 20 28 11 15 1017.3 1017.1 5.2
02/08:00am 22.2 21.6 18.4 79 2.4 SE 19 28 10 15 1016.9 1016.7 5.2
02/07:30am 21.0 21.5 19.3 90 1.1 SE 15 20 8 11 1016.5 1016.3 5.2
02/07:00am 20.7 21.3 19.4 92 0.8 SSE 15 22 8 12 1016.2 1016.0 5.2
02/06:30am 20.5 21.5 19.5 94 0.6 SSE 13 20 7 11 1016.1 1015.9 5.2
02/06:00am 20.6 21.8 19.8 95 0.5 SSE 13 19 7 10 1016.0 1015.8 5.2
02/05:30am 20.6 21.8 19.8 95 0.5 SSE 13 20 7 11 1015.9 1015.7 5.2
02/05:00am 20.8 22.0 19.8 94 0.6 SSE 13 17 7 9 1015.7 1015.5 5.2
02/04:30am 21.2 22.1 20.0 93 0.8 SSE 15 22 8 12 1015.5 1015.3 5.2
02/04:00am 21.3 21.8 20.1 93 0.8 SE 17 26 9 14 1015.5 1015.3 5.2
02/03:30am 21.6 22.6 20.2 92 0.9 SSE 15 20 8 11 1015.7 1015.5 5.2
02/03:00am 21.8 22.4 20.3 91 1.0 SE 17 24 9 13 1015.8 1015.6 5.2
02/02:30am 22.0 22.3 20.5 91 1.0 SE 19 24 10 13 1015.9 1015.7 5.2
02/02:00am 22.2 23.5 20.8 92 0.9 SSE 15 24 8 13 1016.1 1015.9 5.2
02/01:30am 22.1 23.8 20.9 93 0.8 SE 13 19 7 10 1016.4 1016.2 5.2
02/01:00am 22.0 24.1 21.0 94 0.7 SSE 11 19 6 10 1016.6 1016.4 5.2
02/12:30am 22.1 24.3 21.1 94 0.7 SE 11 19 6 10 1016.8 1016.6 5.0
02/12:00am 22.0 23.8 21.2 95 0.5 SE 13 17 7 9 1016.9 1016.7 5.0
 
Date/Time
CST
Temp
°C
App
Temp
°C
Dew
Point
Rel
Hum
%
Delta-T
°C
Wind Press
QNH
hPa
Press
MSL
hPa
Rain
since 9 am
mm
Dir
 
Spd
km/h
Gust
km/h
Spd
kts
Gust
kts
01/11:30pm 22.0 23.9 21.3 96 0.5 SSE 13 17 7 9 1017.1 1016.9 5.0
01/11:00pm 21.8 24.7 21.1 96 0.5 SSE 7 11 4 6 1017.3 1017.1 5.0
01/10:39pm 21.8 24.1 21.3 97 0.3 SSE 11 17 6 9 1017.4 1017.2 5.0
01/10:38pm 21.8 24.1 21.3 97 0.3 SSE 11 17 6 9 1017.4 1017.2 5.0
01/10:30pm 21.8 24.1 21.3 97 0.3 SSE 11 17 6 9 1017.5 1017.3 5.0
01/10:20pm 21.8 24.3 21.1 96 0.5 E 9 13 5 7 1017.6 1017.4 4.8
01/10:00pm 22.0 24.7 21.3 96 0.5 ESE 9 11 5 6 1017.7 1017.5 3.0
01/09:53pm 22.0 24.6 21.2 95 0.5 ESE 9 11 5 6 1017.7 1017.5 2.6
01/09:30pm 22.1 24.6 21.1 94 0.7 ESE 9 15 5 8 1017.6 1017.4 2.6
01/09:00pm 22.2 23.9 21.0 93 0.8 SE 13 15 7 8 1017.3 1017.1 2.6
01/08:30pm 22.1 23.5 21.1 94 0.7 SE 15 22 8 12 1016.8 1016.6 2.6
01/08:00pm 21.9 22.8 20.9 94 0.7 SE 17 20 9 11 1016.4 1016.2 2.6
01/07:30pm 21.7 23.4 20.9 95 0.5 SE 13 24 7 13 1016.2 1016.0 2.6
01/07:00pm 21.9 23.4 21.2 96 0.5 SE 15 20 8 11 1015.8 1015.6 2.4
01/06:56pm 21.9 23.4 21.2 96 0.5 SE 15 20 8 11 1015.8 1015.6 2.4
01/06:33pm 22.1 22.3 21.3 95 0.5 ESE 22 33 12 18 1015.9 1015.7 2.2
01/06:30pm 22.0 21.6 21.0 94 0.7 ESE 24 33 13 18 1015.8 1015.6 2.2
01/06:09pm 23.0 23.9 22.0 94 0.7 SE 20 30 11 16 1015.6 1015.4 0.0
01/06:00pm 23.3 24.2 21.6 90 1.1 SE 19 28 10 15 1015.4 1015.2 0.0
01/05:59pm 23.4 24.4 21.7 90 1.1 SE 19 28 10 15 1015.4 1015.2 0.0
01/05:30pm 24.0 25.1 21.3 85 1.8 SSE 17 28 9 15 1015.1 1014.9 0.0
01/05:00pm 23.3 24.3 21.0 87 1.5 SSE 17 26 9 14 1014.8 1014.6 0.0
01/04:30pm 24.0 24.1 21.1 84 1.9 SSE 22 33 12 18 1014.3 1014.1 0.0
01/04:00pm 23.8 24.2 20.9 84 1.9 SSE 20 30 11 16 1014.4 1014.2 0.0
01/03:30pm 25.1 25.6 21.2 79 2.6 SSE 20 32 11 17 1014.6 1014.4 0.0
01/03:00pm 25.1 25.0 20.8 77 2.8 SE 22 33 12 18 1014.5 1014.3 0.0
01/02:30pm 25.4 24.6 20.0 72 3.5 SE 24 32 13 17 1014.6 1014.4 0.0
01/02:00pm 25.9 23.7 19.5 68 4.1 SE 30 50 16 27 1014.6 1014.4 0.0
01/01:58pm 26.3 24.2 18.9 63 4.7 SE 28 50 15 27 1014.6 1014.4 0.0
01/01:30pm 28.4 28.0 19.3 57 5.9 SE 20 28 11 15 1015.0 1014.8 0.0
01/01:00pm 28.5 27.2 19.1 56 6.1 SE 24 32 13 17 1015.5 1015.3 0.0
01/12:30pm 29.2 29.7 20.1 58 6.0 SSE 17 28 9 15 1015.8 1015.6 0.0
01/12:00pm 27.9 28.1 20.2 63 5.0 SSE 19 30 10 16 1016.5 1016.3 0.0
01/11:30am 27.3 26.5 20.1 64 4.7 SE 24 37 13 20 1016.8 1016.6 0.0
01/11:00am 26.4 26.4 19.8 67 4.3 SSE 19 26 10 14 1017.1 1016.9 0.0
01/10:30am 26.0 26.2 19.4 67 4.3 SE 17 24 9 13 1017.4 1017.2 0.0
01/10:00am 25.3 26.5 19.9 72 3.5 SSE 13 20 7 11 1017.6 1017.4 0.0
01/09:30am 24.4 25.1 19.7 75 3.0 SSE 15 20 8 11 1017.8 1017.6 0.0
01/09:00am 23.9 25.1 19.8 78 2.6 SSE 13 20 7 11 1017.7 1017.5 0.0
01/08:30am 22.5 24.0 18.9 80 2.3 SSE 9 13 5 7 1017.5 1017.3 0.0
01/08:00am 21.1 21.9 18.1 83 1.9 SSE 11 15 6 8 1017.3 1017.1 0.0
01/07:30am 20.0 20.6 17.6 86 1.5 SSE 11 15 6 8 1017.1 1016.9 0.0
01/07:00am 18.6 19.0 16.4 87 1.3 SSE 9 13 5 7 1016.5 1016.3 0.0
01/06:30am 18.5 18.8 15.9 85 1.5 SSE 9 13 5 7 1016.3 1016.1 0.0
01/06:00am 18.7 19.0 15.9 84 1.7 S 9 11 5 6 1016.1 1015.9 0.0
01/05:30am 18.9 19.2 15.9 83 1.8 SSE 9 15 5 8 1015.9 1015.7 0.0
01/05:00am 18.6 18.9 16.0 85 1.5 S 9 13 5 7 1015.9 1015.7 0.0
01/04:30am 18.6 19.6 16.4 87 1.3 S 6 9 3 5 1015.8 1015.6 0.0
01/04:00am 19.0 19.4 16.4 85 1.6 S 9 13 5 7 1015.6 1015.4 0.0
01/03:30am 19.4 20.1 17.0 86 1.5 S 9 11 5 6 1015.7 1015.5 0.0
01/03:00am 19.8 20.6 17.4 86 1.5 S 9 11 5 6 1015.8 1015.6 0.0
01/02:30am 19.7 20.9 16.9 84 1.7 SE 6 9 3 5 1015.9 1015.7 0.0
01/02:00am 20.7 21.9 17.3 81 2.1 E 7 11 4 6 1015.9 1015.7 0.0
01/01:30am 21.0 22.5 17.6 81 2.1 E 6 7 3 4 1016.2 1016.0 0.0
01/01:00am 21.1 23.2 18.1 83 1.9 ESE 4 7 2 4 1016.5 1016.3 0.0
01/12:30am 21.4 23.1 18.4 83 1.9 ESE 7 9 4 5 1016.7 1016.5 0.0
01/12:00am 22.6 24.1 19.0 80 2.3 ESE 9 13 5 7 1016.8 1016.6 0.0
 
Date/Time
CST
Temp
°C
App
Temp
°C
Dew
Point
Rel
Hum
%
Delta-T
°C
Wind Press
QNH
hPa
Press
MSL
hPa
Rain
since 9 am
mm
Dir
 
Spd
km/h
Gust
km/h
Spd
kts
Gust
kts
30/11:30pm 22.4 23.8 19.6 84 1.8 ESE 11 13 6 7 1016.9 1016.7 0.0
30/11:00pm 21.9 23.5 19.1 84 1.8 SE 9 13 5 7 1016.7 1016.5 0.0
30/10:30pm 22.2 24.1 19.0 82 2.0 ESE 7 9 4 5 1016.7 1016.5 0.0
30/10:00pm 23.0 24.6 19.2 79 2.4 ESE 9 11 5 6 1016.6 1016.4 0.0
30/09:30pm 23.3 24.8 19.0 77 2.7 E 9 11 5 6 1016.4 1016.2 0.0
30/09:00pm 23.6 25.1 18.9 75 3.0 E 9 11 5 6 1016.1 1015.9 0.0
30/08:30pm 23.9 25.7 19.6 77 2.8 ENE 9 11 5 6 1015.5 1015.3 0.0
30/08:00pm 24.4 26.4 19.2 73 3.3 ENE 7 9 4 5 1015.0 1014.8 0.0
30/07:30pm 24.8 26.8 18.7 69 3.9 ENE 6 9 3 5 1014.7 1014.5 0.0
30/07:00pm 25.0 26.8 18.4 66 4.2 E 6 7 3 4 1014.4 1014.2 0.0
30/06:30pm 25.4 27.0 17.8 62 4.8 E 6 9 3 5 1014.0 1013.8 0.0
30/06:00pm 26.5 27.3 17.3 57 5.8 ENE 9 11 5 6 1013.7 1013.5 0.0
30/05:30pm 28.4 28.3 16.0 47 7.7 ENE 11 15 6 8 1013.5 1013.3 0.0
30/05:00pm 28.8 29.0 15.7 45 8.1 ENE 9 13 5 7 1013.1 1012.9 0.0
30/04:30pm 28.7 28.3 15.2 43 8.2 NE 11 15 6 8 1012.9 1012.7 0.0
30/04:00pm 29.1 28.3 15.2 42 8.5 NE 13 17 7 9 1013.0 1012.8 0.0
30/03:30pm 30.1 29.7 16.1 42 8.7 ENE 13 17 7 9 1013.1 1012.9 0.0
30/03:00pm 30.4 28.9 15.3 40 9.3 NE 17 24 9 13 1013.3 1013.1 0.0
30/02:30pm 30.1 28.8 13.8 37 9.8 E 13 20 7 11 1013.6 1013.4 0.0
30/02:00pm 30.7 29.3 13.5 35 10.3 SE 13 22 7 12 1013.9 1013.7 0.0
30/01:30pm 30.4 28.6 13.2 35 10.3 ESE 15 26 8 14 1014.5 1014.3 0.0
30/01:00pm 29.7 27.7 12.6 35 10.1 E 15 20 8 11 1014.7 1014.5 0.0
30/12:30pm 29.6 27.0 12.1 34 10.2 E 17 22 9 12 1015.1 1014.9 0.0
30/12:00pm 30.2 27.8 12.6 34 10.4 ESE 17 26 9 14 1015.5 1015.3 0.0
30/11:30am 28.9 25.8 11.5 34 10.0 ESE 19 26 10 14 1016.0 1015.8 0.0
30/11:00am 28.8 26.5 11.8 35 9.8 ESE 15 22 8 12 1016.2 1016.0 0.0
30/10:30am 27.7 26.3 13.3 41 8.5 ESE 13 20 7 11 1016.5 1016.3 0.0
30/10:00am 25.9 24.8 14.4 49 6.9 SE 13 19 7 10 1016.6 1016.4 0.0
30/09:30am 23.5 22.6 14.8 58 5.2 SSE 13 19 7 10 1016.6 1016.4 0.0
30/09:00am 22.7 22.6 15.0 61 4.6 SSE 9 15 5 8 1016.4 1016.2 0.0
30/08:30am 22.2 23.3 14.6 62 4.5 S 2 11 1 6 1016.4 1016.2 0.0
30/08:00am 19.3 19.5 15.8 80 2.1 SSE 9 13 5 7 1016.4 1016.2 0.0
30/07:31am 16.5 17.0 15.5 94 0.6 S 7 9 4 5 1016.1 1015.9 0.0
30/07:30am 16.5 17.0 15.5 94 0.6 S 7 9 4 5 1016.1 1015.9 0.0
30/07:00am 15.8 17.4 15.0 95 0.5 CALM 0 4 0 2 1015.9 1015.7 0.0
30/06:51am 15.8 16.6 14.8 94 0.6 NNE 4 6 2 3 1015.9 1015.7 0.0
30/06:30am 16.5 17.9 15.4 93 0.6 NNE 2 6 1 3 1016.0 1015.8 0.0
30/06:00am 17.3 18.0 15.6 90 1.0 NNE 6 9 3 5 1016.0 1015.8 0.0
30/05:30am 18.1 18.5 16.3 89 1.1 SSE 9 13 5 7 1015.6 1015.4 0.0
30/05:00am 18.2 18.6 16.4 89 1.1 S 9 15 5 8 1015.4 1015.2 0.0
30/04:30am 18.5 19.0 16.5 88 1.2 S 9 15 5 8 1015.4 1015.2 0.0
30/04:00am 18.4 19.1 16.2 87 1.3 SSE 7 9 4 5 1015.4 1015.2 0.0
30/03:30am 18.3 19.1 16.3 88 1.2 SSE 7 9 4 5 1015.8 1015.6 0.0
30/03:00am 18.8 19.6 16.4 86 1.4 S 7 11 4 6 1016.0 1015.8 0.0
30/02:30am 20.4 21.2 16.4 78 2.4 SSE 7 11 4 6 1016.2 1016.0 0.0

Other Formats:

Comma delimited format used in spreadsheet applications
http://www.bom.gov.au/fwo/IDD60801/IDD60801.95142.axf

JavaScript Object Notation format (JSON) in row-major order
http://www.bom.gov.au/fwo/IDD60801/IDD60801.95142.json